createdAt,value
2023-02-15T00:01:14.104Z,3.92
2023-02-15T00:03:43.949Z,4.04
2023-02-15T00:06:13.159Z,3.87
2023-02-15T00:08:47.292Z,3.98
2023-02-15T00:11:39.709Z,3.93
2023-02-15T00:14:10.913Z,3.99
2023-02-15T00:16:40.784Z,3.87
2023-02-15T00:19:09.999Z,3.93
2023-02-15T00:21:39.330Z,4.09
2023-02-15T00:24:13.683Z,3.77
2023-02-15T00:26:44.632Z,3.95
2023-02-15T00:29:21.341Z,3.98
2023-02-15T00:31:51.125Z,3.98
2023-02-15T00:34:23.609Z,3.89
2023-02-15T00:36:54.857Z,3.81
2023-02-15T00:39:24.981Z,3.75
2023-02-15T00:41:52.848Z,3.68
2023-02-15T00:44:21.599Z,3.54
2023-02-15T00:46:52.309Z,3.61
2023-02-15T00:49:21.167Z,3.70
2023-02-15T00:51:57.021Z,3.65
2023-02-15T00:54:26.876Z,3.67
2023-02-15T00:56:57.740Z,3.70
2023-02-15T00:59:25.702Z,3.60
2023-02-15T01:01:53.789Z,3.85
2023-02-15T01:04:21.782Z,3.92
2023-02-15T01:06:52.152Z,3.82
2023-02-15T01:09:21.922Z,3.74
2023-02-15T01:11:51.709Z,3.74
2023-02-15T01:14:21.814Z,3.74
2023-02-15T01:16:54.169Z,3.71
2023-02-15T01:19:30.501Z,3.35
2023-02-15T01:21:59.113Z,3.63
2023-02-15T01:24:27.188Z,3.65
2023-02-15T01:26:59.276Z,3.61
2023-02-15T01:29:32.720Z,3.63
2023-02-15T01:32:04.126Z,3.66
2023-02-15T01:34:32.616Z,3.55
2023-02-15T01:37:00.818Z,3.72
2023-02-15T01:39:30.190Z,3.73
2023-02-15T01:42:07.141Z,3.67
2023-02-15T01:45:03.179Z,3.81
2023-02-15T01:47:44.947Z,3.86
2023-02-15T01:50:21.969Z,3.82
2023-02-15T01:52:56.904Z,3.80
2023-02-15T01:55:39.963Z,3.74
2023-02-15T01:58:11.302Z,3.85
2023-02-15T02:00:40.939Z,3.93
2023-02-15T02:03:09.362Z,3.99
2023-02-15T02:05:38.255Z,3.98
2023-02-15T02:08:08.767Z,3.71
2023-02-15T02:10:40.454Z,3.86
2023-02-15T02:13:12.012Z,3.76
2023-02-15T02:15:53.188Z,3.66
2023-02-15T02:18:38.068Z,3.74
2023-02-15T02:21:45.833Z,3.75
2023-02-15T02:24:51.205Z,3.75
2023-02-15T02:27:30.177Z,3.75
2023-02-15T02:30:52.541Z,3.78
2023-02-15T02:34:02.061Z,3.82
2023-02-15T02:36:42.522Z,3.71
2023-02-15T02:39:24.553Z,3.62
2023-02-15T02:42:01.716Z,3.64
2023-02-15T02:44:45.010Z,3.63
2023-02-15T02:47:21.897Z,3.55
2023-02-15T02:50:00.298Z,3.68
2023-02-15T02:52:41.743Z,3.67
2023-02-15T02:55:20.234Z,3.63
2023-02-15T02:57:58.168Z,3.68
2023-02-15T03:00:31.576Z,3.61
2023-02-15T03:03:06.266Z,3.67
2023-02-15T03:05:49.436Z,3.65
2023-02-15T03:08:22.793Z,3.74
2023-02-15T03:10:57.808Z,3.66
2023-02-15T03:13:31.992Z,3.68
2023-02-15T03:16:21.784Z,3.75
2023-02-15T03:18:59.323Z,3.53
2023-02-15T03:21:35.244Z,3.72
2023-02-15T03:24:11.548Z,3.71
2023-02-15T03:26:44.567Z,3.68
2023-02-15T03:29:15.844Z,3.75
2023-02-15T03:31:51.028Z,3.70
2023-02-15T03:34:20.727Z,3.77
2023-02-15T03:36:55.626Z,3.76
2023-02-15T03:39:35.310Z,3.83
2023-02-15T03:42:14.547Z,3.70
2023-02-15T03:44:53.891Z,3.94
2023-02-15T03:47:25.693Z,3.89
2023-02-15T03:50:02.981Z,3.74
2023-02-15T03:52:35.659Z,3.89
2023-02-15T03:55:08.412Z,4.04
2023-02-15T03:57:56.217Z,3.73
2023-02-15T04:00:44.847Z,3.59
2023-02-15T04:03:26.242Z,3.74
2023-02-15T04:05:54.535Z,3.67
2023-02-15T04:08:46.489Z,3.67
2023-02-15T04:11:15.082Z,3.51
2023-02-15T04:13:46.491Z,3.47
2023-02-15T04:16:15.853Z,3.74
2023-02-15T04:19:03.884Z,3.90
2023-02-15T04:21:50.784Z,3.80
2023-02-15T04:24:41.612Z,3.86
2023-02-15T04:27:13.269Z,3.91
2023-02-15T04:29:43.458Z,3.93
2023-02-15T04:32:21.517Z,3.90
2023-02-15T04:34:50.718Z,3.63
2023-02-15T04:37:22.430Z,3.85
2023-02-15T04:39:54.771Z,3.67
2023-02-15T04:42:22.731Z,3.68
2023-02-15T04:44:51.710Z,3.69
2023-02-15T04:47:21.486Z,3.70
2023-02-15T04:49:50.099Z,3.80
2023-02-15T04:52:21.074Z,3.77
2023-02-15T04:54:49.776Z,3.73
2023-02-15T04:57:25.466Z,3.84
2023-02-15T04:59:53.618Z,3.83
2023-02-15T05:02:21.885Z,3.70
2023-02-15T05:04:50.332Z,3.79
2023-02-15T05:07:22.924Z,3.88
2023-02-15T05:09:51.780Z,3.87
2023-02-15T05:12:22.675Z,3.91
2023-02-15T05:14:51.249Z,3.92
2023-02-15T05:17:21.177Z,3.75
2023-02-15T05:19:50.452Z,3.54
2023-02-15T05:22:19.225Z,3.52
2023-02-15T05:25:03.971Z,3.67
2023-02-15T05:27:51.358Z,3.58
2023-02-15T05:30:21.206Z,3.70
2023-02-15T05:32:49.340Z,3.55
2023-02-15T05:35:20.308Z,3.74
2023-02-15T05:37:50.995Z,3.54
2023-02-15T05:40:19.339Z,3.59
2023-02-15T05:42:49.285Z,3.70
2023-02-15T05:45:17.901Z,3.69
2023-02-15T05:47:46.444Z,3.81
2023-02-15T05:50:21.073Z,3.79
2023-02-15T05:52:52.295Z,3.70
2023-02-15T05:55:21.424Z,3.75
2023-02-15T05:57:53.870Z,3.90
2023-02-15T06:00:23.811Z,4.00
2023-02-15T06:02:55.316Z,3.85
2023-02-15T06:05:25.201Z,3.74
2023-02-15T06:08:00.762Z,3.49
2023-02-15T06:10:31.767Z,3.82
2023-02-15T06:13:07.343Z,3.77
2023-02-15T06:15:35.917Z,3.73
2023-02-15T06:18:07.128Z,3.47
2023-02-15T06:20:37.396Z,3.56
2023-02-15T06:23:07.912Z,3.50
2023-02-15T06:25:39.703Z,3.39
2023-02-15T06:28:09.901Z,3.32
2023-02-15T06:30:41.410Z,3.45
2023-02-15T06:33:10.859Z,3.39
2023-02-15T06:35:40.141Z,3.39
2023-02-15T06:38:08.626Z,3.02
2023-02-15T06:40:45.860Z,3.39
2023-02-15T06:43:17.074Z,3.53
2023-02-15T06:45:50.466Z,3.73
2023-02-15T06:48:20.286Z,3.68
2023-02-15T06:50:51.400Z,3.53
2023-02-15T06:53:21.799Z,3.50
2023-02-15T06:55:51.811Z,3.53
2023-02-15T06:58:24.297Z,3.64
2023-02-15T07:00:56.710Z,3.53
2023-02-15T07:03:26.355Z,3.35
2023-02-15T07:05:57.310Z,3.49
2023-02-15T07:08:29.560Z,3.32
2023-02-15T07:11:23.995Z,3.41
2023-02-15T07:13:57.869Z,3.66
2023-02-15T07:16:28.229Z,3.56
2023-02-15T07:19:00.535Z,3.57
2023-02-15T07:21:30.181Z,3.28
2023-02-15T07:23:59.879Z,3.54
2023-02-15T07:26:28.658Z,3.49
2023-02-15T07:29:00.658Z,3.54
2023-02-15T07:31:30.265Z,3.44
2023-02-15T07:34:00.476Z,3.61
2023-02-15T07:36:30.652Z,3.44
2023-02-15T07:39:01.478Z,3.37
2023-02-15T07:41:30.246Z,3.43
2023-02-15T07:44:05.368Z,3.56
2023-02-15T07:46:38.894Z,3.46
2023-02-15T07:49:10.968Z,3.49
2023-02-15T07:51:43.256Z,3.50
2023-02-15T07:54:12.665Z,3.56
2023-02-15T07:56:40.790Z,3.40
2023-02-15T07:59:11.338Z,3.40
2023-02-15T08:01:41.533Z,3.64
2023-02-15T08:04:14.561Z,3.25
2023-02-15T08:06:45.379Z,3.39
2023-02-15T08:09:14.255Z,3.61
2023-02-15T08:11:44.547Z,2.97
2023-02-15T08:14:16.882Z,3.12
2023-02-15T08:16:49.721Z,3.21
2023-02-15T08:19:28.341Z,3.28
2023-02-15T08:21:58.904Z,3.29
2023-02-15T08:24:30.003Z,3.16
2023-02-15T08:26:59.686Z,3.41
2023-02-15T08:29:34.720Z,3.54
2023-02-15T08:32:06.065Z,3.38
2023-02-15T08:34:38.326Z,3.24
2023-02-15T08:37:07.055Z,3.54
2023-02-15T08:39:38.444Z,3.57
2023-02-15T08:42:07.754Z,3.50
2023-02-15T08:44:37.653Z,3.63
2023-02-15T08:47:11.543Z,3.48
2023-02-15T08:49:43.456Z,3.10
2023-02-15T08:52:13.582Z,3.05
2023-02-15T08:54:46.271Z,2.81
2023-02-15T08:57:18.864Z,3.14
2023-02-15T08:59:56.162Z,3.11
2023-02-15T09:02:26.873Z,3.29
2023-02-15T09:04:57.205Z,3.09
2023-02-15T09:07:25.333Z,3.25
2023-02-15T09:09:53.429Z,3.11
2023-02-15T09:12:23.368Z,3.02
2023-02-15T09:14:53.592Z,2.85
2023-02-15T09:17:24.815Z,3.05
2023-02-15T09:19:52.716Z,3.06
2023-02-15T09:22:23.836Z,3.15
2023-02-15T09:24:55.946Z,3.16
2023-02-15T09:27:24.868Z,3.36
2023-02-15T09:29:55.238Z,3.11
2023-02-15T09:32:28.007Z,2.90
2023-02-15T09:34:56.021Z,3.20
2023-02-15T09:37:24.980Z,3.08
2023-02-15T09:39:57.134Z,3.00
2023-02-15T09:43:01.950Z,3.12
2023-02-15T09:45:46.966Z,2.95
2023-02-15T09:48:48.512Z,2.88
2023-02-15T09:51:43.360Z,2.72
2023-02-15T09:54:28.542Z,2.95
2023-02-15T09:57:19.915Z,3.25
2023-02-15T09:59:57.822Z,3.51
2023-02-15T10:02:44.151Z,3.68
2023-02-15T10:05:28.336Z,3.69
2023-02-15T10:08:16.012Z,3.79
2023-02-15T10:10:56.608Z,3.43
2023-02-15T10:16:33.702Z,3.42
2023-02-15T10:19:16.028Z,3.88
2023-02-15T10:21:59.612Z,3.87
2023-02-15T10:25:01.914Z,4.07
2023-02-15T10:27:36.960Z,3.87
2023-02-15T10:30:14.300Z,3.69
2023-02-15T10:32:56.206Z,3.43
2023-02-15T10:35:41.432Z,3.22
2023-02-15T10:38:23.384Z,3.51
2023-02-15T10:41:07.997Z,3.54
2023-02-15T10:43:51.538Z,3.43
2023-02-15T10:46:38.246Z,3.62
2023-02-15T10:49:34.689Z,3.56
2023-02-15T10:52:30.446Z,3.71
2023-02-15T10:55:09.954Z,3.44
2023-02-15T10:57:53.725Z,3.65
2023-02-15T11:00:30.284Z,3.88
2023-02-15T11:03:15.890Z,3.99
2023-02-15T11:05:58.589Z,3.80
2023-02-15T11:08:37.191Z,3.73
2023-02-15T11:11:08.850Z,3.79
2023-02-15T11:13:47.392Z,3.59
2023-02-15T11:16:24.048Z,3.49
2023-02-15T11:18:57.905Z,3.69
2023-02-15T11:21:31.378Z,3.92
2023-02-15T11:24:03.696Z,4.04
2023-02-15T11:26:39.483Z,3.66
2023-02-15T11:29:15.518Z,3.78
2023-02-15T11:31:47.790Z,3.87
2023-02-15T11:34:23.969Z,4.19
2023-02-15T11:36:59.030Z,3.43
2023-02-15T11:39:29.696Z,3.63
2023-02-15T11:42:04.449Z,3.70
2023-02-15T11:44:51.046Z,3.75
2023-02-15T11:47:19.628Z,3.76
2023-02-15T11:49:49.420Z,3.45
2023-02-15T11:52:23.505Z,3.85
2023-02-15T11:55:12.040Z,3.73
2023-02-15T11:57:44.514Z,3.94
2023-02-15T12:00:21.145Z,3.90
2023-02-15T12:02:57.516Z,4.03
2023-02-15T12:05:31.602Z,4.19
2023-02-15T12:08:06.845Z,4.31
2023-02-15T12:10:50.066Z,4.21
2023-02-15T12:13:22.702Z,4.38
2023-02-15T12:15:57.554Z,4.52
2023-02-15T12:18:58.024Z,4.35
2023-02-15T12:21:43.542Z,4.53
2023-02-15T12:24:24.027Z,4.54
2023-02-15T12:27:03.801Z,4.61
2023-02-15T12:29:40.180Z,4.54
2023-02-15T12:32:17.447Z,4.28
2023-02-15T12:34:56.353Z,4.64
2023-02-15T12:37:28.881Z,4.40
2023-02-15T12:39:59.476Z,4.59
2023-02-15T12:42:45.432Z,4.48
2023-02-15T12:45:27.775Z,4.46
2023-02-15T12:48:18.360Z,4.68
2023-02-15T12:50:56.374Z,4.65
2023-02-15T12:53:34.209Z,4.52
2023-02-15T12:56:07.179Z,4.67
2023-02-15T12:58:37.954Z,4.77
2023-02-15T13:01:17.079Z,4.82
2023-02-15T13:04:10.189Z,4.93
2023-02-15T13:06:42.985Z,4.86
2023-02-15T13:09:18.705Z,5.20
2023-02-15T13:11:51.090Z,4.92
2023-02-15T13:14:26.324Z,5.00
2023-02-15T13:17:02.302Z,4.85
2023-02-15T13:19:38.070Z,5.15
2023-02-15T13:22:16.091Z,5.02
2023-02-15T13:24:55.693Z,5.29
2023-02-15T13:27:27.370Z,4.96
2023-02-15T13:30:21.440Z,4.68
2023-02-15T13:33:15.409Z,5.04
2023-02-15T13:35:53.064Z,5.11
2023-02-15T13:38:46.558Z,4.76
2023-02-15T13:44:25.222Z,5.07
2023-02-15T13:47:12.737Z,5.35
2023-02-15T13:49:55.597Z,5.05
2023-02-15T13:52:26.249Z,5.10
2023-02-15T13:55:35.266Z,5.44
2023-02-15T13:58:41.162Z,5.29
2023-02-15T14:01:15.411Z,6.05
2023-02-15T14:04:04.542Z,5.55
2023-02-15T14:07:10.422Z,5.49
2023-02-15T14:13:25.964Z,5.27
2023-02-15T14:16:03.066Z,5.14
2023-02-15T14:18:43.601Z,5.10
2023-02-15T14:21:17.201Z,5.21
2023-02-15T14:24:05.485Z,5.39
2023-02-15T14:26:44.026Z,5.34
2023-02-15T14:29:29.020Z,5.14
2023-02-15T14:32:01.613Z,5.27
2023-02-15T14:34:42.017Z,5.38
2023-02-15T14:37:14.798Z,5.20
2023-02-15T14:40:07.978Z,5.28
2023-02-15T14:42:47.132Z,5.63
2023-02-15T14:45:24.983Z,5.46
2023-02-15T14:48:03.842Z,5.36
2023-02-15T14:50:46.439Z,5.14
2023-02-15T14:53:25.061Z,5.48
2023-02-15T14:56:09.348Z,5.47
2023-02-15T14:58:42.059Z,5.39
2023-02-15T15:01:19.954Z,5.02
2023-02-15T15:03:58.652Z,5.19
2023-02-15T15:06:32.039Z,4.88
2023-02-15T15:09:28.397Z,4.96
2023-02-15T15:12:15.157Z,5.02
2023-02-15T15:14:44.268Z,4.98
2023-02-15T15:17:16.440Z,4.81
2023-02-15T15:20:14.725Z,4.81
2023-02-15T15:22:46.353Z,5.13
2023-02-15T15:25:47.653Z,5.17
2023-02-15T15:28:58.840Z,5.47
2023-02-15T15:31:45.886Z,5.25
2023-02-15T15:34:49.809Z,5.48
2023-02-15T15:38:08.658Z,5.21
2023-02-15T15:41:07.870Z,5.33
2023-02-15T15:44:55.385Z,5.24
2023-02-15T15:47:51.259Z,4.97
2023-02-15T15:50:23.817Z,4.73
2023-02-15T15:52:55.783Z,4.74
2023-02-15T15:55:26.873Z,4.64
2023-02-15T15:58:00.409Z,4.59
2023-02-15T16:00:37.020Z,4.98
2023-02-15T16:03:07.228Z,4.76
2023-02-15T16:05:43.798Z,4.80
2023-02-15T16:08:17.207Z,5.14
2023-02-15T16:10:56.693Z,4.97
2023-02-15T16:13:26.025Z,4.82
2023-02-15T16:16:05.938Z,4.87
2023-02-15T16:18:39.966Z,4.99
2023-02-15T16:21:22.402Z,4.73
2023-02-15T16:24:12.306Z,4.77
2023-02-15T16:27:01.292Z,4.51
2023-02-15T16:29:36.205Z,4.72
2023-02-15T16:32:07.839Z,4.69
2023-02-15T16:34:38.834Z,4.64
2023-02-15T16:37:22.870Z,4.46
2023-02-15T16:39:52.581Z,4.54
2023-02-15T16:42:23.312Z,4.41
2023-02-15T16:44:59.889Z,4.31
2023-02-15T16:47:33.702Z,4.73
2023-02-15T16:50:06.366Z,4.13
2023-02-15T16:52:37.119Z,4.38
2023-02-15T16:55:08.020Z,4.23
2023-02-15T16:57:41.506Z,4.12
2023-02-15T17:03:10.626Z,4.12
2023-02-15T17:05:45.816Z,4.11
2023-02-15T17:08:27.828Z,4.08
2023-02-15T17:11:19.086Z,4.02
2023-02-15T17:14:24.018Z,4.30
2023-02-15T17:17:02.628Z,4.12
2023-02-15T17:19:33.842Z,4.29
2023-02-15T17:22:08.408Z,4.29
2023-02-15T17:24:41.419Z,4.10
2023-02-15T17:27:17.758Z,3.99
2023-02-15T17:29:51.285Z,3.95
2023-02-15T17:32:23.075Z,4.15
2023-02-15T17:35:19.511Z,4.14
2023-02-15T17:37:49.398Z,4.05
2023-02-15T17:40:30.436Z,3.98
2023-02-15T17:42:59.609Z,4.00
2023-02-15T17:45:33.775Z,3.83
2023-02-15T17:48:05.687Z,3.82
2023-02-15T17:50:37.864Z,3.66
2023-02-15T17:53:10.531Z,3.76
2023-02-15T17:55:39.467Z,3.66
2023-02-15T17:58:09.517Z,3.65
2023-02-15T18:00:59.549Z,3.81
2023-02-15T18:03:59.030Z,3.74
2023-02-15T18:06:46.291Z,3.84
2023-02-15T18:09:36.168Z,3.94
2023-02-15T18:12:21.110Z,3.88
2023-02-15T18:15:07.269Z,3.99
2023-02-15T18:17:38.666Z,3.94
2023-02-15T18:20:18.372Z,3.82
2023-02-15T18:22:50.143Z,3.77
2023-02-15T18:25:21.283Z,4.00
2023-02-15T18:27:55.461Z,3.77
2023-02-15T18:30:29.659Z,4.02
2023-02-15T18:33:02.048Z,4.02
2023-02-15T18:35:34.986Z,3.83
2023-02-15T18:38:09.201Z,3.64
2023-02-15T18:40:39.124Z,3.63
2023-02-15T18:43:15.241Z,3.79
2023-02-15T18:45:43.997Z,3.76
2023-02-15T18:48:15.364Z,4.02
2023-02-15T18:50:47.035Z,3.97
2023-02-15T18:53:25.676Z,3.76
2023-02-15T18:55:56.732Z,3.74
2023-02-15T18:58:28.460Z,3.85
2023-02-15T19:01:03.396Z,3.98
2023-02-15T19:03:32.365Z,3.88
2023-02-15T19:06:01.474Z,3.46
2023-02-15T19:08:31.998Z,3.88
2023-02-15T19:11:01.779Z,3.71
2023-02-15T19:13:36.099Z,3.76
2023-02-15T19:16:10.003Z,3.93
2023-02-15T19:18:54.902Z,3.82
2023-02-15T19:21:25.571Z,3.92
2023-02-15T19:23:59.171Z,3.86
2023-02-15T19:26:44.473Z,3.83
2023-02-15T19:29:21.272Z,3.82
2023-02-15T19:31:50.674Z,3.99
2023-02-15T19:34:21.116Z,3.78
2023-02-15T19:36:53.882Z,3.77
2023-02-15T19:39:32.527Z,3.61
2023-02-15T19:42:02.398Z,3.81
2023-02-15T19:44:33.233Z,3.59
2023-02-15T19:47:02.245Z,3.67
2023-02-15T19:49:32.017Z,3.80
2023-02-15T19:52:03.563Z,3.84
2023-02-15T19:54:35.978Z,3.89
2023-02-15T19:57:05.100Z,3.66
2023-02-15T19:59:37.837Z,4.02
2023-02-15T20:02:42.743Z,3.77
2023-02-15T20:05:12.430Z,3.58
2023-02-15T20:07:49.334Z,3.68
2023-02-15T20:10:21.864Z,3.74
2023-02-15T20:12:58.741Z,3.48
2023-02-15T20:15:32.576Z,3.66
2023-02-15T20:18:03.985Z,3.70
2023-02-15T20:20:40.223Z,3.68
2023-02-15T20:23:18.677Z,3.64
2023-02-15T20:25:48.375Z,3.85
2023-02-15T20:28:20.860Z,3.94
2023-02-15T20:30:55.180Z,3.93
2023-02-15T20:33:25.232Z,3.81
2023-02-15T20:35:54.311Z,3.88
2023-02-15T20:38:30.618Z,3.79
2023-02-15T20:41:19.285Z,3.96
2023-02-15T20:43:50.250Z,3.79
2023-02-15T20:46:19.592Z,3.65
2023-02-15T20:48:51.446Z,3.64
2023-02-15T20:51:47.828Z,3.74
2023-02-15T20:54:21.091Z,3.63
2023-02-15T20:56:51.429Z,3.61
2023-02-15T20:59:25.436Z,3.69
2023-02-15T21:01:59.744Z,3.63
2023-02-15T21:04:36.257Z,3.74
2023-02-15T21:07:06.880Z,3.71
2023-02-15T21:09:35.447Z,3.65
2023-02-15T21:12:06.227Z,3.54
2023-02-15T21:14:35.871Z,3.67
2023-02-15T21:17:06.844Z,3.67
2023-02-15T21:19:35.845Z,3.75
2023-02-15T21:22:05.562Z,3.64
2023-02-15T21:24:36.476Z,3.44
2023-02-15T21:27:08.957Z,3.55
2023-02-15T21:29:40.436Z,3.59
2023-02-15T21:32:11.715Z,3.78
2023-02-15T21:34:43.229Z,3.67
2023-02-15T21:37:31.264Z,3.61
2023-02-15T21:40:03.525Z,3.66
2023-02-15T21:42:54.692Z,3.87
2023-02-15T21:45:40.212Z,3.63
2023-02-15T21:48:10.719Z,3.55
2023-02-15T21:50:57.391Z,3.75
2023-02-15T21:53:29.090Z,3.72
2023-02-15T21:55:58.981Z,3.81
2023-02-15T21:58:30.443Z,3.65
2023-02-15T22:01:03.067Z,3.65
2023-02-15T22:03:37.400Z,3.87
2023-02-15T22:06:08.622Z,3.74
2023-02-15T22:08:38.809Z,3.68
2023-02-15T22:11:12.794Z,3.84
2023-02-15T22:13:42.405Z,3.79
2023-02-15T22:16:18.346Z,3.95
2023-02-15T22:18:49.530Z,3.64
2023-02-15T22:21:18.223Z,3.75
2023-02-15T22:23:47.096Z,3.83
2023-02-15T22:26:21.628Z,3.73
2023-02-15T22:28:57.124Z,3.72
2023-02-15T22:31:26.125Z,3.76
2023-02-15T22:33:59.264Z,3.57
2023-02-15T22:36:29.834Z,3.64
2023-02-15T22:38:59.615Z,3.87
2023-02-15T22:41:31.875Z,3.34
2023-02-15T22:44:15.232Z,3.56
2023-02-15T22:46:51.704Z,3.17
2023-02-15T22:49:21.990Z,3.46
2023-02-15T22:51:51.186Z,3.21
2023-02-15T22:54:20.416Z,3.30
2023-02-15T22:56:54.799Z,3.41
2023-02-15T22:59:26.474Z,3.51
2023-02-15T23:01:54.824Z,3.22
2023-02-15T23:04:32.938Z,3.03
2023-02-15T23:07:02.601Z,3.51
2023-02-15T23:09:31.437Z,3.73
2023-02-15T23:12:00.837Z,3.53
2023-02-15T23:14:33.364Z,3.51
2023-02-15T23:17:03.737Z,3.36
2023-02-15T23:19:33.805Z,3.44
2023-02-15T23:22:05.898Z,3.44
2023-02-15T23:24:35.283Z,3.39
2023-02-15T23:27:17.486Z,3.20
2023-02-15T23:29:52.753Z,3.33
2023-02-15T23:32:24.764Z,3.58
2023-02-15T23:34:53.942Z,3.61
2023-02-15T23:37:22.663Z,3.67
2023-02-15T23:40:10.899Z,3.50
2023-02-15T23:42:39.693Z,3.40
2023-02-15T23:45:22.151Z,3.48
2023-02-15T23:48:09.047Z,3.42
2023-02-15T23:50:41.375Z,3.63
2023-02-15T23:53:11.638Z,3.43
2023-02-15T23:55:44.560Z,3.64
2023-02-15T23:58:27.725Z,3.65
